Terminal Aerodrome Forecast
Issued by NWS Cleveland, OH

Home | Current Version | Previous Version | Graphics & Text | Print | Product List | Glossary On
Versions: 1 2 3 4 5 6 7 8 9 10 11 12 13 14 15 16 17 18 19 20 21
000
FTUS41 KCLE 291128
TAFCAK
TAF
KCAK 291128Z 2912/3012 19004KT P6SM OVC250
     FM291500 18009KT P6SM OVC250
     FM291900 17008KT P6SM -SHRA OVC100
     FM292200 16006KT 4SM SHRA BR OVC025
     FM300300 14011KT 5SM -SHRA BR OVC007
     FM300600 18007KT 4SM BR OVC025=

USA.gov is the U.S. government's official web portal to all federal, state and local government web resources and services.